Time;durP1;ratioP1;P1;durP2;ratioP2;P2;SDS_P1;SDS_P2;PMS_P1;PMS_P2;Temp;Humidity;BMP_temperature;BMP_pressure;BME280_temperature;BME280_humidity;BME280_pressure;Samples;Min_cycle;Max_cycle;Signal;HPM_P1;HPM_P2
2023/09/06 00:02:31;;;;;;;;;;;;;;;30.17;39.86;94547.28;4933707;28;7182;-57
2023/09/06 00:05:01;;;;;;;;;;;;;;;30.14;39.56;94551.91;4941725;28;8907;-57
2023/09/06 00:08:13;;;;;;;;;;;;;;;30.16;40.17;94546.56;4949220;28;7000;-57
2023/09/06 00:10:50;;;;;;;;;;;;;;;30.16;39.83;94548.59;4953954;28;7055;-57
2023/09/06 00:13:31;;;;;;;;;;;;;;;30.13;40.51;94541.31;4948656;28;7220;-57
2023/09/06 00:16:03;;;;;;;;;;;;;;;30.14;39.58;94542.81;4930066;28;9812;-57
2023/09/06 00:18:30;;;;;;;;;;;;;;;30.13;40.14;94539.31;4932070;28;7274;-57
2023/09/06 00:20:59;;;;;;;;;;;;;;;30.12;39.40;94543.38;4941313;28;8357;-57
2023/09/06 00:23:54;;;;;;;;;;;;;;;30.12;40.37;94535.06;4947633;28;8736;-57
2023/09/06 00:26:41;;;;;;;;;;;;;;;30.13;39.14;94528.19;4944355;28;7148;-57
2023/09/06 00:29:10;;;;;;;;;;;;;;;30.14;39.85;94528.97;4952717;28;7310;-56
2023/09/06 00:31:46;;;;;;;;;;;;;;;30.10;39.33;94526.50;4951955;28;7177;-58
2023/09/06 00:34:16;;;;;;;;;;;;;;;30.09;39.84;94527.78;4935743;28;7357;-63
2023/09/06 00:36:51;;;;;;;;;;;;;;;30.12;39.09;94529.50;4947197;29;7089;-61
2023/09/06 00:39:32;;;;;;;;;;;;;;;30.11;40.23;94521.69;4942425;28;7110;-61
2023/09/06 00:42:42;;;;;;;;;;;;;;;30.11;39.82;94524.47;4944536;29;7247;-60
2023/09/06 00:45:10;;;;;;;;;;;;;;;30.09;39.86;94525.03;4943833;29;8016;-61
2023/09/06 00:47:42;;;;;;;;;;;;;;;30.09;39.96;94535.38;4929222;29;7367;-61
2023/09/06 00:50:35;;;;;;;;;;;;;;;30.08;39.91;94529.06;4948089;29;7265;-60
2023/09/06 00:53:13;;;;;;;;;;;;;;;30.10;39.53;94525.78;4946705;29;6994;-61
2023/09/06 00:55:52;;;;;;;;;;;;;;;30.07;40.05;94522.03;4929300;29;8170;-61
2023/09/06 00:58:27;;;;;;;;;;;;;;;30.07;39.79;94522.03;4948602;29;7262;-61
2023/09/06 01:00:53;;;;;;;;;;;;;;;30.08;39.19;94523.50;4930601;29;7473;-60
2023/09/06 01:03:40;;;;;;;;;;;;;;;30.08;39.69;94526.28;4944436;29;7002;-61
2023/09/06 01:06:14;;;;;;;;;;;;;;;30.08;40.24;94517.25;4949688;29;7217;-60
2023/09/06 01:08:55;;;;;;;;;;;;;;;30.08;39.99;94526.28;4950980;28;7574;-61
2023/09/06 01:11:26;;;;;;;;;;;;;;;30.04;39.15;94520.31;4936678;29;7072;-60
2023/09/06 01:13:59;;;;;;;;;;;;;;;30.06;39.86;94526.09;4940861;28;9079;-60
2023/09/06 01:16:55;;;;;;;;;;;;;;;30.06;39.33;94517.03;4945736;28;7289;-61
2023/09/06 01:19:32;;;;;;;;;;;;;;;30.04;39.37;94520.31;4899619;29;7015;-61
2023/09/06 01:22:54;;;;;;;;;;;;;;;30.04;39.17;94517.56;4911795;29;7400;-60
2023/09/06 01:26:08;;;;;;;;;;;;;;;30.03;39.66;94524.41;4895657;29;7316;-61
2023/09/06 01:29:13;;;;;;;;;;;;;;;30.00;39.40;94528.25;4893178;29;9333;-61
2023/09/06 01:31:40;;;;;;;;;;;;;;;30.02;39.58;94534.00;4861971;29;7212;-61
2023/09/06 01:34:45;;;;;;;;;;;;;;;30.01;39.25;94532.50;4858719;29;7254;-61
2023/09/06 01:37:24;;;;;;;;;;;;;;;29.99;40.13;94529.53;4869926;29;9168;-61
2023/09/06 01:39:59;;;;;;;;;;;;;;;29.99;40.00;94518.44;4872530;29;7071;-61
2023/09/06 01:42:34;;;;;;;;;;;;;;;29.99;39.22;94521.22;4859844;29;9105;-61
2023/09/06 01:45:00;;;;;;;;;;;;;;;29.98;40.39;94528.03;4876039;29;8526;-63
2023/09/06 01:47:35;;;;;;;;;;;;;;;29.95;40.22;94531.88;4875786;29;8746;-63
2023/09/06 01:50:07;;;;;;;;;;;;;;;29.97;39.77;94534.13;4872839;29;8817;-63
2023/09/06 01:52:36;;;;;;;;;;;;;;;29.95;39.92;94525.59;4877246;29;7241;-63
2023/09/06 01:55:18;;;;;;;;;;;;;;;29.95;39.80;94520.78;4865133;29;9499;-63
2023/09/06 01:57:47;;;;;;;;;;;;;;;29.96;39.13;94527.06;4863607;29;7050;-63
2023/09/06 02:00:28;;;;;;;;;;;;;;;29.95;39.41;94520.78;4863893;29;9053;-63
2023/09/06 02:03:03;;;;;;;;;;;;;;;29.97;39.05;94528.56;4880961;29;7206;-63
2023/09/06 02:06:01;;;;;;;;;;;;;;;29.97;39.93;94517.47;4911879;28;7303;-63
2023/09/06 02:08:35;;;;;;;;;;;;;;;29.96;38.96;94529.84;4950089;28;7378;-63
2023/09/06 02:11:02;;;;;;;;;;;;;;;29.96;39.79;94527.06;4955403;28;7070;-63
2023/09/06 02:13:42;;;;;;;;;;;;;;;29.92;39.40;94510.03;4931034;28;7180;-63
2023/09/06 02:16:19;;;;;;;;;;;;;;;29.93;39.31;94517.06;4936044;28;7329;-63
2023/09/06 02:18:46;;;;;;;;;;;;;;;29.92;39.75;94518.34;4943470;28;9795;-63
2023/09/06 02:21:23;;;;;;;;;;;;;;;29.87;39.20;94514.41;4931568;28;8287;-63
2023/09/06 02:23:49;;;;;;;;;;;;;;;29.89;39.00;94516.63;4948774;28;8685;-63
2023/09/06 02:26:21;;;;;;;;;;;;;;;29.91;39.39;94525.16;4946036;28;7683;-63
2023/09/06 02:28:58;;;;;;;;;;;;;;;29.91;39.60;94523.13;4954627;28;9516;-63
2023/09/06 02:31:24;;;;;;;;;;;;;;;29.90;38.93;94523.69;4929094;28;7219;-63
2023/09/06 02:34:25;;;;;;;;;;;;;;;29.90;39.24;94529.97;4940329;28;7231;-63
2023/09/06 02:37:01;;;;;;;;;;;;;;;29.88;39.15;94532.53;4947595;28;7364;-63
2023/09/06 02:39:27;;;;;;;;;;;;;;;29.88;39.07;94535.31;4938087;28;7070;-63
2023/09/06 02:41:55;;;;;;;;;;;;;;;29.89;40.00;94533.25;4947349;28;6995;-62
2023/09/06 02:44:21;;;;;;;;;;;;;;;29.87;40.09;94519.19;4934140;28;7337;-63
2023/09/06 02:46:54;;;;;;;;;;;;;;;29.87;40.09;94525.50;4935341;28;7149;-63
2023/09/06 02:49:32;;;;;;;;;;;;;;;29.87;39.03;94535.84;4950021;28;7295;-63
2023/09/06 02:52:38;;;;;;;;;;;;;;;29.87;39.26;94536.59;4949020;28;7274;-63
2023/09/06 02:55:10;;;;;;;;;;;;;;;29.87;39.33;94533.06;4951775;28;6986;-63
2023/09/06 02:57:42;;;;;;;;;;;;;;;29.84;39.65;94537.66;4947349;28;8930;-63
2023/09/06 03:00:26;;;;;;;;;;;;;;;29.85;39.31;94538.41;4935345;28;7148;-63
2023/09/06 03:03:07;;;;;;;;;;;;;;;29.84;39.02;94543.19;4927119;29;8777;-64
2023/09/06 03:05:41;;;;;;;;;;;;;;;29.85;39.35;94541.91;4952144;28;9089;-63
2023/09/06 03:08:16;;;;;;;;;;;;;;;29.85;39.38;94539.16;4946932;28;6995;-64
2023/09/06 03:11:17;;;;;;;;;;;;;;;29.85;39.00;94555.03;4945594;28;9079;-63
2023/09/06 03:14:02;;;;;;;;;;;;;;;29.82;39.18;94545.75;4863830;29;7266;-63
2023/09/06 03:16:57;;;;;;;;;;;;;;;29.85;39.12;94543.94;4860087;29;9145;-63
2023/09/06 03:19:41;;;;;;;;;;;;;;;29.83;39.50;94544.47;4797128;29;7065;-63
2023/09/06 03:22:12;;;;;;;;;;;;;;;29.84;40.02;94554.28;4786511;29;8751;-63
2023/09/06 03:24:43;;;;;;;;;;;;;;;29.80;39.48;94549.06;4803705;29;7231;-63
2023/09/06 03:27:20;;;;;;;;;;;;;;;29.82;40.24;94556.84;4801525;29;7244;-63
2023/09/06 03:29:50;;;;;;;;;;;;;;;29.81;39.51;94560.91;4788145;29;8621;-63
2023/09/06 03:36:17;;;;;;;;;;;;;;;29.80;39.08;94556.63;4793760;29;7009;-63
2023/09/06 03:38:43;;;;;;;;;;;;;;;29.80;40.17;94557.38;4795243;29;7318;-63
2023/09/06 03:41:09;;;;;;;;;;;;;;;29.80;39.49;94554.63;4803887;29;7191;-63
2023/09/06 03:43:53;;;;;;;;;;;;;;;29.78;39.35;94548.09;4787574;29;7200;-64
2023/09/06 03:46:30;;;;;;;;;;;;;;;29.76;38.99;94559.75;4802057;29;8522;-63
2023/09/06 03:48:56;;;;;;;;;;;;;;;29.77;39.51;94568.81;4807025;29;7988;-63
2023/09/06 03:51:40;;;;;;;;;;;;;;;29.75;40.03;94563.78;4843568;29;7353;-63
2023/09/06 03:54:06;;;;;;;;;;;;;;;29.77;39.12;94569.56;4833159;29;9186;-64
2023/09/06 03:56:50;;;;;;;;;;;;;;;29.76;38.99;94564.53;4935419;28;7618;-64
2023/09/06 03:59:18;;;;;;;;;;;;;;;29.76;40.04;94575.63;4936546;28;6964;-63
2023/09/06 04:02:13;;;;;;;;;;;;;;;29.74;39.31;94573.41;4931456;29;7271;-63
2023/09/06 04:05:11;;;;;;;;;;;;;;;29.72;39.00;94578.69;4936007;28;8836;-64
2023/09/06 04:07:49;;;;;;;;;;;;;;;29.71;39.98;94574.44;4872566;29;6966;-64
2023/09/06 04:10:35;;;;;;;;;;;;;;;29.72;39.29;94577.94;4881499;29;9416;-63
2023/09/06 04:13:39;;;;;;;;;;;;;;;29.71;38.87;94585.50;4865880;29;7006;-63
2023/09/06 04:16:05;;;;;;;;;;;;;;;29.69;38.98;94581.78;4847235;29;7365;-63
2023/09/06 04:18:35;;;;;;;;;;;;;;;29.71;39.92;94587.56;4849994;29;8715;-63
2023/09/06 04:21:08;;;;;;;;;;;;;;;29.72;39.34;94580.72;4859494;29;9120;-63
2023/09/06 04:23:55;;;;;;;;;;;;;;;29.68;38.87;94581.06;4857840;29;9374;-63
2023/09/06 04:26:31;;;;;;;;;;;;;;;29.69;39.76;94584.56;4848115;29;7230;-63
2023/09/06 04:29:06;;;;;;;;;;;;;;;29.69;38.97;94584.56;4858319;29;9077;-64
2023/09/06 04:31:44;;;;;;;;;;;;;;;29.66;39.73;94583.63;4841827;29;7713;-63
2023/09/06 04:34:11;;;;;;;;;;;;;;;29.68;39.78;94591.38;4846908;29;7154;-63
2023/09/06 04:36:57;;;;;;;;;;;;;;;29.66;38.93;94580.09;4846374;29;7071;-63
2023/09/06 04:39:54;;;;;;;;;;;;;;;29.67;39.77;94595.44;4860918;29;9440;-64
2023/09/06 04:43:03;;;;;;;;;;;;;;;29.66;39.09;94588.41;4858549;29;7786;-64
2023/09/06 04:45:42;;;;;;;;;;;;;;;29.65;39.09;94581.34;4891121;29;7263;-64
2023/09/06 04:52:02;;;;;;;;;;;;;;;29.65;39.42;94598.00;4947230;28;7149;-63
2023/09/06 04:54:38;;;;;;;;;;;;;;;29.65;38.93;94592.44;4938718;28;7090;-62
2023/09/06 04:57:18;;;;;;;;;;;;;;;29.64;39.28;94590.97;4951941;28;7149;-63
2023/09/06 04:59:46;;;;;;;;;;;;;;;29.63;39.57;94592.25;4945343;28;7260;-63
2023/09/06 05:02:28;;;;;;;;;;;;;;;29.60;39.59;94585.72;4941276;28;8395;-63
2023/09/06 05:05:52;;;;;;;;;;;;;;;29.63;40.25;94589.47;4958402;28;8176;-62
2023/09/06 05:08:47;;;;;;;;;;;;;;;29.61;38.94;94592.03;4942246;28;9112;-63
2023/09/06 05:11:29;;;;;;;;;;;;;;;29.62;39.96;94588.00;4937899;28;7065;-63
2023/09/06 05:13:58;;;;;;;;;;;;;;;29.61;40.04;94595.56;4956843;28;8634;-63
2023/09/06 05:16:31;;;;;;;;;;;;;;;29.60;40.09;94601.63;4932511;28;7007;-64
2023/09/06 05:18:59;;;;;;;;;;;;;;;29.60;39.30;94601.63;4929163;28;7146;-63
2023/09/06 05:21:24;;;;;;;;;;;;;;;29.59;39.84;94605.66;4944820;28;7257;-62
2023/09/06 05:23:52;;;;;;;;;;;;;;;29.59;39.49;94606.44;4948268;28;6944;-63
2023/09/06 05:26:17;;;;;;;;;;;;;;;29.58;39.05;94604.19;4931661;28;9016;-62
2023/09/06 05:28:47;;;;;;;;;;;;;;;29.58;39.08;94599.38;4942003;28;9143;-62
2023/09/06 05:31:16;;;;;;;;;;;;;;;29.57;39.53;94599.91;4931590;28;8745;-62
2023/09/06 05:33:45;;;;;;;;;;;;;;;29.58;39.75;94604.19;4944997;28;7214;-63
2023/09/06 05:36:15;;;;;;;;;;;;;;;29.56;38.86;94599.16;4952847;28;7242;-63
2023/09/06 05:39:15;;;;;;;;;;;;;;;29.57;38.81;94597.16;4947415;28;7273;-62
2023/09/06 05:41:54;;;;;;;;;;;;;;;29.57;39.57;94597.16;4944812;28;8789;-62
2023/09/06 05:44:38;;;;;;;;;;;;;;;29.56;39.79;94595.63;4934313;28;8751;-62
2023/09/06 05:47:47;;;;;;;;;;;;;;;29.55;39.54;94599.69;4956081;28;7266;-62
2023/09/06 05:50:22;;;;;;;;;;;;;;;29.55;39.38;94594.16;4954432;28;9195;-62
2023/09/06 05:52:51;;;;;;;;;;;;;;;29.54;39.86;94598.94;4951270;28;7459;-62
2023/09/06 05:55:17;;;;;;;;;;;;;;;29.54;39.89;94598.94;4954223;28;9024;-63
2023/09/06 05:58:38;;;;;;;;;;;;;;;29.55;39.12;94594.91;4932272;29;7524;-63
2023/09/06 06:01:21;;;;;;;;;;;;;;;29.53;38.95;94597.47;4875920;29;7211;-63
2023/09/06 06:03:48;;;;;;;;;;;;;;;29.51;39.08;94596.50;4871996;29;7247;-62
2023/09/06 06:06:43;;;;;;;;;;;;;;;29.52;38.73;94597.97;4870122;29;7217;-62
2023/09/06 06:09:15;;;;;;;;;;;;;;;29.50;39.71;94606.84;4856876;29;8428;-62
2023/09/06 06:11:53;;;;;;;;;;;;;;;29.52;38.88;94607.06;4854758;29;7011;-62
2023/09/06 06:14:51;;;;;;;;;;;;;;;29.53;44.32;94596.72;4853146;29;8175;-62
2023/09/06 06:17:18;;;;;;;;;;;;;;;29.55;41.31;94610.78;4839908;29;9169;-61
2023/09/06 06:20:23;;;;;;;;;;;;;;;29.54;41.21;94600.97;4851403;29;7329;-62
2023/09/06 06:22:59;;;;;;;;;;;;;;;29.53;40.77;94607.81;4849584;29;7523;-61
2023/09/06 06:29:22;;;;;;;;;;;;;;;29.48;39.79;94597.56;4814447;29;8259;-62
2023/09/06 06:31:51;;;;;;;;;;;;;;;29.47;39.51;94607.88;4806754;29;8327;-62
2023/09/06 06:34:19;;;;;;;;;;;;;;;29.45;38.67;94612.50;4811551;29;7360;-62
2023/09/06 06:36:54;;;;;;;;;;;;;;;29.47;39.30;94609.94;4855692;29;8898;-62
2023/09/06 06:39:54;;;;;;;;;;;;;;;29.46;38.63;94616.75;4858937;29;7021;-62
2023/09/06 06:42:39;;;;;;;;;;;;;;;29.45;39.07;94615.28;4859156;29;7016;-62
2023/09/06 06:45:06;;;;;;;;;;;;;;;29.43;38.57;94615.78;4848340;29;8860;-62
2023/09/06 06:47:35;;;;;;;;;;;;;;;29.40;38.13;94605.78;4874199;29;7292;-62
2023/09/06 06:50:46;;;;;;;;;;;;;;;29.42;38.00;94613.53;4881490;29;9420;-62
2023/09/06 06:53:30;;;;;;;;;;;;;;;29.42;38.87;94616.31;4869518;29;8515;-62
2023/09/06 06:56:31;;;;;;;;;;;;;;;29.37;37.63;94611.63;4870162;29;9136;-63
2023/09/06 06:59:08;;;;;;;;;;;;;;;29.38;38.33;94607.56;4818457;29;6984;-62
2023/09/06 07:01:52;;;;;;;;;;;;;;;29.37;38.01;94611.63;4801876;29;9158;-62
2023/09/06 07:04:39;;;;;;;;;;;;;;;29.33;38.21;94613.97;4804448;29;7007;-63
2023/09/06 07:07:08;;;;;;;;;;;;;;;29.34;38.56;94612.69;4861889;29;7217;-62
2023/09/06 07:09:53;;;;;;;;;;;;;;;29.33;38.41;94617.47;4865335;29;9353;-62
2023/09/06 07:12:52;;;;;;;;;;;;;;;29.34;37.52;94618.22;4860876;29;7488;-63
2023/09/06 07:15:28;;;;;;;;;;;;;;;29.35;38.02;94616.94;4874235;29;8784;-63
2023/09/06 07:18:08;;;;;;;;;;;;;;;29.34;38.18;94623.78;4841391;29;7042;-63
2023/09/06 07:20:43;;;;;;;;;;;;;;;29.30;37.50;94620.53;4848207;29;9189;-63
2023/09/06 07:23:37;;;;;;;;;;;;;;;29.32;37.52;94626.34;4840791;29;7476;-63
2023/09/06 07:26:04;;;;;;;;;;;;;;;29.31;38.19;94624.81;4861136;29;8227;-63
2023/09/06 07:28:43;;;;;;;;;;;;;;;29.30;38.18;94615.00;4854702;29;8820;-63
2023/09/06 07:31:14;;;;;;;;;;;;;;;29.30;37.62;94623.31;4852602;29;7141;-63
2023/09/06 07:33:40;;;;;;;;;;;;;;;29.29;37.43;94619.06;4862254;29;7271;-63
2023/09/06 07:36:18;;;;;;;;;;;;;;;29.29;37.78;94617.06;4948703;28;7070;-63
2023/09/06 07:39:04;;;;;;;;;;;;;;;29.31;38.57;94619.28;4946059;28;8755;-62
2023/09/06 07:41:44;;;;;;;;;;;;;;;29.31;37.79;94627.59;4925553;28;7289;-62
2023/09/06 07:44:10;;;;;;;;;;;;;;;29.30;38.18;94624.06;4931410;28;7480;-62
2023/09/06 07:46:41;;;;;;;;;;;;;;;29.31;38.08;94624.81;4934498;28;6986;-62
2023/09/06 07:49:07;;;;;;;;;;;;;;;29.32;37.81;94626.34;4950661;28;9259;-62
2023/09/06 07:51:34;;;;;;;;;;;;;;;29.35;38.46;94631.56;4948071;28;7167;-62
2023/09/06 07:54:02;;;;;;;;;;;;;;;29.33;38.02;94620.25;4947741;28;7219;-62
2023/09/06 07:56:34;;;;;;;;;;;;;;;29.35;38.23;94631.56;4930425;28;7238;-62
2023/09/06 07:59:10;;;;;;;;;;;;;;;29.38;38.36;94626.97;4942883;28;9778;-62
2023/09/06 08:02:09;;;;;;;;;;;;;;;29.37;38.40;94625.47;4945349;28;7251;-62
2023/09/06 08:04:36;;;;;;;;;;;;;;;29.34;37.55;94623.78;4944540;28;7226;-62
2023/09/06 08:07:26;;;;;;;;;;;;;;;29.34;38.35;94626.53;4944793;28;7079;-62
2023/09/06 08:10:08;;;;;;;;;;;;;;;29.30;37.77;94626.09;4950394;28;9017;-62
2023/09/06 08:12:46;;;;;;;;;;;;;;;29.33;38.26;94633.34;4947803;28;7279;-63
2023/09/06 08:15:15;;;;;;;;;;;;;;;29.30;38.46;94629.63;4949981;28;7042;-62
2023/09/06 08:17:57;;;;;;;;;;;;;;;29.31;38.88;94628.34;4953534;28;8806;-61
2023/09/06 08:21:09;;;;;;;;;;;;;;;29.31;38.35;94630.38;4949996;28;7603;-62
2023/09/06 08:23:36;;;;;;;;;;;;;;;29.32;38.52;94629.09;4882536;29;9173;-62
2023/09/06 08:26:34;;;;;;;;;;;;;;;29.32;39.08;94627.06;4898301;29;7218;-62
2023/09/06 08:29:34;;;;;;;;;;;;;;;29.31;38.32;94633.13;4825733;29;6980;-62
2023/09/06 08:32:13;;;;;;;;;;;;;;;29.30;38.43;94634.41;4801944;29;6865;-62
2023/09/06 08:34:54;;;;;;;;;;;;;;;29.32;38.52;94629.09;4820925;29;8735;-62
2023/09/06 08:37:33;;;;;;;;;;;;;;;29.30;39.38;94626.09;4837689;29;6988;-62
2023/09/06 08:40:07;;;;;;;;;;;;;;;29.32;39.11;94626.34;4826332;29;7158;-62
2023/09/06 08:42:55;;;;;;;;;;;;;;;29.30;39.18;94624.06;4819338;29;7267;-62
2023/09/06 08:45:31;;;;;;;;;;;;;;;29.32;39.24;94627.06;4818105;29;7302;-63
2023/09/06 08:48:06;;;;;;;;;;;;;;;29.35;38.84;94623.25;4820671;29;7505;-63
2023/09/06 08:50:57;;;;;;;;;;;;;;;29.35;39.50;94626.00;4836108;29;9317;-63
2023/09/06 08:53:42;;;;;;;;;;;;;;;29.35;39.91;94626.00;4823597;29;7987;-63
2023/09/06 08:56:24;;;;;;;;;;;;;;;29.33;40.04;94614.72;4840760;29;9920;-63
2023/09/06 08:59:03;;;;;;;;;;;;;;;29.35;39.23;94628.03;4841213;29;8211;-64
2023/09/06 09:01:47;;;;;;;;;;;;;;;29.36;39.28;94619.16;4852025;29;7002;-64
2023/09/06 09:04:14;;;;;;;;;;;;;;;29.33;39.46;94627.81;4875494;29;7096;-64
2023/09/06 09:06:44;;;;;;;;;;;;;;;29.39;39.91;94625.69;4949809;29;7133;-64
2023/09/06 09:10:03;;;;;;;;;;;;;;;29.39;39.83;94622.91;4952886;29;8970;-64
2023/09/06 09:12:41;;;;;;;;;;;;;;;29.35;40.51;94622.47;4872867;29;7013;-63
2023/09/06 09:15:26;;;;;;;;;;;;;;;29.39;39.57;94626.44;4858926;29;6993;-64
2023/09/06 09:17:53;;;;;;;;;;;;;;;29.41;40.27;94629.41;4873108;29;7219;-64
2023/09/06 09:20:21;;;;;;;;;;;;;;;29.41;40.08;94625.91;4858964;29;9265;-64
2023/09/06 09:23:11;;;;;;;;;;;;;;;29.43;39.71;94631.66;4876186;29;7232;-63
2023/09/06 09:25:48;;;;;;;;;;;;;;;29.44;40.44;94628.38;4870308;29;9090;-64
2023/09/06 09:28:24;;;;;;;;;;;;;;;29.46;39.53;94630.59;4870567;29;7355;-64
2023/09/06 09:31:13;;;;;;;;;;;;;;;29.46;39.08;94634.13;4881104;29;6871;-63
2023/09/06 09:33:49;;;;;;;;;;;;;;;29.48;40.13;94619.72;4864189;29;8764;-64
2023/09/06 09:36:28;;;;;;;;;;;;;;;29.49;39.99;94624.72;4878150;29;7165;-64
2023/09/06 09:39:32;;;;;;;;;;;;;;;29.50;40.05;94622.72;4874323;29;7065;-63
2023/09/06 09:42:01;;;;;;;;;;;;;;;29.50;39.98;94622.72;4867948;28;7209;-64
2023/09/06 09:44:34;;;;;;;;;;;;;;;29.49;39.68;94624.72;4930933;29;7286;-65
2023/09/06 09:47:32;;;;;;;;;;;;;;;29.47;40.07;94627.28;4953325;28;7066;-65
2023/09/06 09:50:26;;;;;;;;;;;;;;;29.48;39.29;94626.03;4949607;28;7334;-64
2023/09/06 09:53:12;;;;;;;;;;;;;;;29.45;40.09;94621.53;4862615;29;7072;-64
2023/09/06 09:55:49;;;;;;;;;;;;;;;29.44;39.24;94622.81;4891861;29;9105;-65
2023/09/06 09:58:35;;;;;;;;;;;;;;;29.40;40.53;94616.84;4856971;29;7016;-65
2023/09/06 10:01:11;;;;;;;;;;;;;;;29.43;39.40;94624.09;4869642;29;7464;-65
2023/09/06 10:03:58;;;;;;;;;;;;;;;29.45;40.42;94616.00;4874366;29;7479;-65
2023/09/06 10:07:16;;;;;;;;;;;;;;;29.45;40.25;94618.75;4878311;29;9491;-65
2023/09/06 10:09:54;;;;;;;;;;;;;;;29.47;40.08;94609.94;4864388;29;7003;-65
2023/09/06 10:12:43;;;;;;;;;;;;;;;29.48;39.82;94614.19;4861726;29;9416;-65
2023/09/06 10:15:24;;;;;;;;;;;;;;;29.46;39.76;94605.66;4864400;29;9466;-65
2023/09/06 10:18:13;;;;;;;;;;;;;;;29.48;39.43;94611.41;4862935;29;6970;-65
2023/09/06 10:20:59;;;;;;;;;;;;;;;29.48;39.83;94600.34;4878514;29;7609;-65
2023/09/06 10:23:43;;;;;;;;;;;;;;;29.50;39.30;94608.84;4873449;29;7544;-65
2023/09/06 10:26:45;;;;;;;;;;;;;;;29.52;40.41;94597.97;4877982;29;9412;-66
2023/09/06 10:29:49;;;;;;;;;;;;;;;29.52;39.81;94604.28;4892708;29;7594;-65
2023/09/06 10:32:16;;;;;;;;;;;;;;;29.52;39.37;94590.41;4954303;28;7101;-65
2023/09/06 10:35:20;;;;;;;;;;;;;;;29.52;39.83;94597.97;4952374;28;9211;-65
2023/09/06 10:38:06;;;;;;;;;;;;;;;29.46;40.21;94594.56;4947142;28;7261;-65
2023/09/06 10:41:11;;;;;;;;;;;;;;;29.43;40.74;94592.84;4950739;28;7441;-65
2023/09/06 10:44:03;;;;;;;;;;;;;;;29.41;40.17;94592.66;4945698;28;7082;-65
2023/09/06 10:46:39;;;;;;;;;;;;;;;29.41;39.93;94584.34;4945985;28;6983;-65
2023/09/06 10:49:49;;;;;;;;;;;;;;;29.43;39.81;94587.31;4951222;28;7150;-66
2023/09/06 10:53:04;;;;;;;;;;;;;;;29.40;40.68;94589.16;4952874;28;7284;-65
2023/09/06 10:55:53;;;;;;;;;;;;;;;29.39;40.19;94586.88;4952053;28;7871;-65
2023/09/06 10:58:27;;;;;;;;;;;;;;;29.36;40.20;94580.38;4948718;28;8092;-65
2023/09/06 11:01:17;;;;;;;;;;;;;;;29.41;40.84;94581.56;4948301;28;6973;-65
2023/09/06 11:04:25;;;;;;;;;;;;;;;29.41;41.07;94581.56;4944516;28;9717;-65
2023/09/06 11:07:04;;;;;;;;;;;;;;;29.39;40.42;94567.50;4954245;28;7071;-58
2023/09/06 11:09:31;;;;;;;;;;;;;;;29.42;40.08;94578.28;4927336;29;7188;-57
2023/09/06 11:12:28;;;;;;;;;;;;;;;29.39;41.50;94570.25;4927288;29;7236;-57
2023/09/06 11:14:58;;;;;;;;;;;;;;;29.36;40.88;94571.34;4929236;28;8764;-57
2023/09/06 11:17:33;;;;;;;;;;;;;;;29.40;40.70;94578.06;4930432;28;9159;-58
2023/09/06 11:20:28;;;;;;;;;;;;;;;29.38;41.49;94580.63;4935331;28;8789;-58
2023/09/06 11:23:06;;;;;;;;;;;;;;;29.36;40.60;94568.56;4949663;28;8750;-58
2023/09/06 11:25:58;;;;;;;;;;;;;;;29.40;40.42;94566.97;4947477;28;7388;-57
2023/09/06 11:28:33;;;;;;;;;;;;;;;29.40;40.34;94566.97;4879429;29;9057;-58
2023/09/06 11:31:04;;;;;;;;;;;;;;;29.39;41.29;94565.47;4875000;29;7980;-57
2023/09/06 11:33:33;;;;;;;;;;;;;;;29.44;41.53;94566.66;4885629;29;8756;-57
2023/09/06 11:36:03;;;;;;;;;;;;;;;29.42;41.05;94561.66;4887692;29;7054;-58
2023/09/06 11:38:35;;;;;;;;;;;;;;;29.47;41.50;94562.81;4885181;29;7279;-58
2023/09/06 11:41:11;;;;;;;;;;;;;;;29.47;41.83;94568.38;4878187;29;9105;-58
2023/09/06 11:43:43;;;;;;;;;;;;;;;29.48;40.49;94567.81;4880104;29;7063;-57
2023/09/06 11:46:31;;;;;;;;;;;;;;;29.49;41.28;94560.25;4880626;29;7211;-58
2023/09/06 11:48:58;;;;;;;;;;;;;;;29.50;40.92;94553.44;4876583;29;8204;-57
2023/09/06 11:51:28;;;;;;;;;;;;;;;29.54;41.77;94554.59;4886951;29;8487;-58
2023/09/06 11:54:10;;;;;;;;;;;;;;;29.54;41.54;94553.84;4876219;29;6983;-57
2023/09/06 11:57:04;;;;;;;;;;;;;;;29.54;41.45;94556.63;4885641;29;7243;-58
2023/09/06 11:59:50;;;;;;;;;;;;;;;29.54;41.24;94546.28;4877496;29;7418;-58
2023/09/06 12:02:16;;;;;;;;;;;;;;;29.54;41.15;94542.75;4878320;29;6979;-58
2023/09/06 12:05:11;;;;;;;;;;;;;;;29.58;40.90;94545.97;4895294;28;7261;-58
2023/09/06 12:07:44;;;;;;;;;;;;;;;29.61;41.38;94550.44;4930889;28;7226;-58
2023/09/06 12:10:28;;;;;;;;;;;;;;;29.59;41.79;94544.69;4951279;28;9289;-57
2023/09/06 12:13:05;;;;;;;;;;;;;;;29.64;41.10;94541.06;4947326;28;9097;-58
2023/09/06 12:15:31;;;;;;;;;;;;;;;29.67;41.37;94542.75;4942590;28;7388;-63
2023/09/06 12:18:04;;;;;;;;;;;;;;;29.69;40.67;94542.97;4947080;28;7582;-63
2023/09/06 12:20:33;;;;;;;;;;;;;;;29.70;41.74;94533.38;4950247;28;7491;-63
2023/09/06 12:23:04;;;;;;;;;;;;;;;29.69;40.92;94538.19;4936966;28;7323;-63
2023/09/06 12:25:31;;;;;;;;;;;;;;;29.68;41.73;94527.63;4939597;28;7604;-62
2023/09/06 12:28:07;;;;;;;;;;;;;;;29.70;40.78;94533.38;4945190;28;8838;-63
2023/09/06 12:30:41;;;;;;;;;;;;;;;29.65;41.11;94521.13;4944721;28;9004;-62
2023/09/06 12:33:14;;;;;;;;;;;;;;;29.68;41.07;94519.31;4944839;28;7279;-63
2023/09/06 12:35:40;;;;;;;;;;;;;;;29.70;41.09;94522.28;4936410;28;9094;-63
2023/09/06 12:38:08;;;;;;;;;;;;;;;29.75;41.32;94530.50;4930489;28;7163;-63
2023/09/06 12:40:39;;;;;;;;;;;;;;;29.80;41.22;94526.13;4949318;28;7649;-63
2023/09/06 12:43:07;;;;;;;;;;;;;;;29.84;41.64;94515.47;4943643;29;7317;-63
2023/09/06 12:45:42;;;;;;;;;;;;;;;29.89;40.95;94516.63;4925885;29;6959;-63
2023/09/06 12:48:08;;;;;;;;;;;;;;;29.91;41.69;94514.81;4950587;29;9016;-63
2023/09/06 12:50:40;;;;;;;;;;;;;;;29.92;41.61;94510.78;4930222;29;7312;-63
2023/09/06 12:53:11;;;;;;;;;;;;;;;29.96;41.45;94505.63;4936248;29;7267;-63
2023/09/06 12:55:46;;;;;;;;;;;;;;;30.00;40.40;94500.50;4947813;29;7247;-63
2023/09/06 12:58:29;;;;;;;;;;;;;;;30.05;40.64;94505.19;4934218;29;7238;-63
2023/09/06 13:00:57;;;;;;;;;;;;;;;30.06;41.44;94506.66;4951574;28;6856;-63
2023/09/06 13:03:26;;;;;;;;;;;;;;;30.07;40.68;94504.66;4950971;29;8746;-63
2023/09/06 13:06:14;;;;;;;;;;;;;;;30.08;41.60;94501.31;4946212;29;9418;-63
2023/09/06 13:09:06;;;;;;;;;;;;;;;30.11;40.23;94499.50;4946446;28;9386;-63
2023/09/06 13:11:34;;;;;;;;;;;;;;;30.13;40.93;94491.38;4885770;29;9136;-63
2023/09/06 13:14:15;;;;;;;;;;;;;;;30.15;40.52;94497.13;4897332;29;6993;-63
2023/09/06 13:17:00;;;;;;;;;;;;;;;30.18;40.40;94490.53;4874943;29;7221;-63
2023/09/06 13:19:35;;;;;;;;;;;;;;;30.18;41.10;94482.19;4892480;29;9116;-63
2023/09/06 13:22:13;;;;;;;;;;;;;;;30.21;41.44;94487.41;4882581;29;7311;-63
2023/09/06 13:24:51;;;;;;;;;;;;;;;30.22;41.60;94486.13;4894882;29;7025;-68
2023/09/06 13:27:26;;;;;;;;;;;;;;;30.26;41.31;94488.56;4872121;29;8785;-68
2023/09/06 13:30:06;;;;;;;;;;;;;;;30.26;40.45;94481.00;4898297;29;6975;-68
2023/09/06 13:32:38;;;;;;;;;;;;;;;30.28;41.40;94483.22;4898588;29;6970;-68
2023/09/06 13:35:12;;;;;;;;;;;;;;;30.29;41.34;94488.25;4872797;29;9058;-68
2023/09/06 13:37:57;;;;;;;;;;;;;;;30.31;40.55;94482.94;4883095;29;7234;-68
2023/09/06 13:40:34;;;;;;;;;;;;;;;30.31;40.40;94485.72;4877131;29;8695;-68
2023/09/06 13:43:05;;;;;;;;;;;;;;;30.33;40.74;94487.94;4877318;29;7342;-68
2023/09/06 13:45:49;;;;;;;;;;;;;;;30.32;40.91;94478.84;4896319;29;7398;-68
2023/09/06 13:48:23;;;;;;;;;;;;;;;30.31;40.85;94477.38;4919345;28;7037;-68
2023/09/06 13:50:51;;;;;;;;;;;;;;;30.31;41.50;94474.59;4955287;28;6980;-68
2023/09/06 13:53:29;;;;;;;;;;;;;;;30.32;40.85;94470.53;4936690;28;9046;-68
2023/09/06 13:56:12;;;;;;;;;;;;;;;30.36;41.57;94478.53;4932161;29;7101;-68
2023/09/06 13:58:39;;;;;;;;;;;;;;;30.33;41.23;94471.28;4949116;28;8600;-67
2023/09/06 14:01:16;;;;;;;;;;;;;;;30.33;40.56;94477.59;4953383;28;8735;-67
2023/09/06 14:03:59;;;;;;;;;;;;;;;30.36;40.27;94479.25;4954751;28;7318;-68
2023/09/06 14:06:37;;;;;;;;;;;;;;;30.38;41.31;94484.28;4945720;28;7131;-67
2023/09/06 14:09:11;;;;;;;;;;;;;;;30.39;41.17;94475.41;4935692;28;7525;-67
2023/09/06 14:12:09;;;;;;;;;;;;;;;30.41;41.41;94472.84;4936016;28;8756;-67
2023/09/06 14:14:48;;;;;;;;;;;;;;;30.36;40.96;94464.66;4877172;29;7266;-67
2023/09/06 14:17:14;;;;;;;;;;;;;;;30.39;40.51;94464.31;4857485;29;6920;-67